createdAt,value
2022-09-14T00:01:26.506Z,20.85
2022-09-14T00:04:05.461Z,20.15
2022-09-14T00:06:33.584Z,21.15
2022-09-14T00:09:01.423Z,20.55
2022-09-14T00:11:32.113Z,20.38
2022-09-14T00:14:01.341Z,21.63
2022-09-14T00:16:31.088Z,20.58
2022-09-14T00:19:01.104Z,20.08
2022-09-14T00:21:29.149Z,23.17
2022-09-14T00:23:56.370Z,21.45
2022-09-14T00:26:23.984Z,21.45
2022-09-14T00:28:56.697Z,20.58
2022-09-14T00:31:25.890Z,20.77
2022-09-14T00:33:53.787Z,20.27
2022-09-14T00:36:27.183Z,20.02
2022-09-14T00:38:56.872Z,19.77
2022-09-14T00:41:27.460Z,18.67
2022-09-14T00:44:15.653Z,18.77
2022-09-14T00:46:46.562Z,19.00
2022-09-14T00:49:31.321Z,18.70
2022-09-14T00:52:16.554Z,16.42
2022-09-14T00:54:49.894Z,18.30
2022-09-14T00:57:18.544Z,18.85
2022-09-14T00:59:48.600Z,18.08
2022-09-14T01:02:16.331Z,17.88
2022-09-14T01:04:44.730Z,18.02
2022-09-14T01:07:33.043Z,18.38
2022-09-14T01:10:22.037Z,20.65
2022-09-14T01:13:07.997Z,20.30
2022-09-14T01:15:53.990Z,19.42
2022-09-14T01:18:46.336Z,21.05
2022-09-14T01:21:21.971Z,23.02
2022-09-14T01:23:58.207Z,23.45
2022-09-14T01:26:37.080Z,22.65
2022-09-14T01:29:19.184Z,21.98
2022-09-14T01:32:07.222Z,21.65
2022-09-14T01:34:46.613Z,22.42
2022-09-14T01:37:19.721Z,20.48
2022-09-14T01:39:54.408Z,20.92
2022-09-14T01:42:26.472Z,21.77
2022-09-14T01:44:59.274Z,20.27
2022-09-14T01:47:40.460Z,19.63
2022-09-14T01:50:34.253Z,18.83
2022-09-14T01:53:20.363Z,19.80
2022-09-14T01:56:11.133Z,20.10
2022-09-14T01:58:45.523Z,18.40
2022-09-14T02:01:19.343Z,17.90
2022-09-14T02:03:54.760Z,18.40
2022-09-14T02:06:34.614Z,17.92
2022-09-14T02:09:03.350Z,19.63
2022-09-14T02:11:30.327Z,16.77
2022-09-14T02:13:57.531Z,17.85
2022-09-14T02:16:26.170Z,17.83
2022-09-14T02:18:53.856Z,18.70
2022-09-14T02:21:25.798Z,17.20
2022-09-14T02:23:54.059Z,16.73
2022-09-14T02:26:23.240Z,16.92
2022-09-14T02:28:50.956Z,18.25
2022-09-14T02:31:57.905Z,17.08
2022-09-14T02:34:32.833Z,16.77
2022-09-14T02:37:22.517Z,16.75
2022-09-14T02:40:06.890Z,16.80
2022-09-14T02:42:35.006Z,15.18
2022-09-14T02:45:06.243Z,16.27
2022-09-14T02:47:55.955Z,17.65
2022-09-14T02:50:26.003Z,16.73
2022-09-14T02:53:38.398Z,17.17
2022-09-14T02:56:09.092Z,17.00
2022-09-14T02:58:40.909Z,17.30
2022-09-14T03:01:09.985Z,18.70
2022-09-14T03:03:37.482Z,17.10
2022-09-14T03:06:05.893Z,16.80
2022-09-14T03:08:33.572Z,15.82
2022-09-14T03:11:00.592Z,15.95
2022-09-14T03:13:28.141Z,14.95
2022-09-14T03:15:55.308Z,16.52
2022-09-14T03:18:22.463Z,17.48
2022-09-14T03:20:49.540Z,16.27
2022-09-14T03:23:16.533Z,16.88
2022-09-14T03:25:45.229Z,17.05
2022-09-14T03:28:13.552Z,16.40
2022-09-14T03:30:40.747Z,17.33
2022-09-14T03:33:07.910Z,14.73
2022-09-14T03:35:35.209Z,15.05
2022-09-14T03:38:03.473Z,15.98
2022-09-14T03:40:31.309Z,16.45
2022-09-14T03:42:58.699Z,17.42
2022-09-14T03:45:25.990Z,15.52
2022-09-14T03:47:53.001Z,16.42
2022-09-14T03:50:20.367Z,15.32
2022-09-14T03:52:47.937Z,13.95
2022-09-14T03:55:15.620Z,14.40
2022-09-14T03:57:42.691Z,14.13
2022-09-14T04:00:11.535Z,12.52
2022-09-14T04:02:39.476Z,13.90
2022-09-14T04:05:07.322Z,13.95
2022-09-14T04:07:34.342Z,13.48
2022-09-14T04:10:01.471Z,12.50
2022-09-14T04:12:28.612Z,13.20
2022-09-14T04:14:55.701Z,13.88
2022-09-14T04:17:25.392Z,12.05
2022-09-14T04:19:52.590Z,11.93
2022-09-14T04:22:19.630Z,12.32
2022-09-14T04:24:46.660Z,10.70
2022-09-14T04:27:13.769Z,12.00
2022-09-14T04:29:40.870Z,11.27
2022-09-14T04:32:07.996Z,11.43
2022-09-14T04:34:35.872Z,11.98
2022-09-14T04:37:02.915Z,11.93
2022-09-14T04:39:30.521Z,11.48
2022-09-14T04:41:57.764Z,12.57
2022-09-14T04:44:24.959Z,12.05
2022-09-14T04:46:52.673Z,13.50
2022-09-14T04:49:21.842Z,12.15
2022-09-14T04:51:49.302Z,13.23
2022-09-14T04:54:18.062Z,11.85
2022-09-14T04:56:45.596Z,11.65
2022-09-14T04:59:12.879Z,11.80
2022-09-14T05:01:43.015Z,10.75
2022-09-14T05:04:12.154Z,10.52
2022-09-14T05:06:41.620Z,9.68
2022-09-14T05:09:16.222Z,10.67
2022-09-14T05:11:43.791Z,10.55
2022-09-14T05:14:14.883Z,10.10
2022-09-14T05:16:43.812Z,9.55
2022-09-14T05:19:17.255Z,9.05
2022-09-14T05:21:45.751Z,9.02
2022-09-14T05:24:15.666Z,8.85
2022-09-14T05:26:44.241Z,7.57
2022-09-14T05:29:17.255Z,7.65
2022-09-14T05:31:45.258Z,7.85
2022-09-14T05:34:12.917Z,7.50
2022-09-14T05:36:40.736Z,7.55
2022-09-14T05:39:08.419Z,7.30
2022-09-14T05:41:36.049Z,6.47
2022-09-14T05:44:03.320Z,6.88
2022-09-14T05:46:30.587Z,6.05
2022-09-14T05:48:58.072Z,5.80
2022-09-14T05:51:27.131Z,6.45
2022-09-14T05:53:56.980Z,5.63
2022-09-14T05:56:26.092Z,5.32
2022-09-14T05:58:53.966Z,5.28
2022-09-14T06:01:22.718Z,5.25
2022-09-14T06:03:51.066Z,4.80
2022-09-14T06:06:19.841Z,5.43
2022-09-14T06:08:50.509Z,4.50
2022-09-14T06:11:20.680Z,4.50
2022-09-14T06:13:48.756Z,4.90
2022-09-14T06:16:18.312Z,4.07
2022-09-14T06:18:46.762Z,5.30
2022-09-14T06:21:16.876Z,4.50
2022-09-14T06:23:44.629Z,4.78
2022-09-14T06:26:12.332Z,4.75
2022-09-14T06:28:39.920Z,4.95
2022-09-14T06:31:10.295Z,4.63
2022-09-14T06:36:12.475Z,3.58
2022-09-14T06:38:41.174Z,4.00
2022-09-14T06:41:10.407Z,4.40
2022-09-14T06:43:39.346Z,4.15
2022-09-14T06:46:07.817Z,4.25
2022-09-14T06:48:38.535Z,3.45
2022-09-14T06:51:31.879Z,4.35
2022-09-14T06:54:00.473Z,3.53
2022-09-14T06:56:29.399Z,4.13
2022-09-14T06:58:58.376Z,3.20
2022-09-14T07:01:27.153Z,3.10
2022-09-14T07:03:54.759Z,3.25
2022-09-14T07:06:39.190Z,3.22
2022-09-14T07:09:06.304Z,3.15
2022-09-14T07:11:33.533Z,3.58
2022-09-14T07:14:02.122Z,2.53
2022-09-14T07:16:32.609Z,3.10
2022-09-14T07:19:04.280Z,2.85
2022-09-14T07:21:33.329Z,2.85
2022-09-14T07:24:01.090Z,2.55
2022-09-14T07:26:30.931Z,3.00
2022-09-14T07:29:11.381Z,2.28
